الصفحة الرئيسية
METAR-TAF:

METAR-TAF

مطار :

Garfield County Regional Airport

Rifle, كولورادو, الولايات المتحدة

دائرة عرض: 39-31-30N, خط طول: 107-43-38W, ارتفاع: 1690 متر

مراقبة الطقس الحالي

تاريخ ووقت الإصدار 1ساعة و 8 دقيقة قبل الساعة 21:53UTC
ريح 21 عقدة من الغرب تتزايد حتى 30 عقدة
درجة الحرارة 29°درجة مئوية
الرطوبة 10%
ضغط 1020 hPa
الرؤية: 16.1 كم
سماء صافية

METAR: KRIL 222153Z AUTO 27021G30KT 10SM CLR 29/M06 A3013 RMK AO2 PK WND 26032/2141 SLP143 T02891056

زمن: 17:01 (23:01 UTC)

توقعات

تاريخ ووقت الإصدار 5ساعات و 30 دقيقة قبل الساعة 17:31UTC
التوقعات صالحة من22 الساعة 18 UTC إلى 23 الساعة 18 UTC
ريح 3 عقدة من الشمال الغربي
الرؤية: 10 كم
سماء صافية
من 22 الساعة 2000 UTC
ريح 13 عقدة من الغرب تتزايد حتى 20 عقدة
الرؤية: 10 كم
سماء صافية
من 23 الساعة 0200 UTC
ريح 5 عقدة من الغرب/الجنوب الغربي
الرؤية: 10 كم
سماء صافية

TAF: KRIL 221731Z 2218/2318 32003KT P6SM SKC FM222000 26013G20KT P6SM SKC FM230200 24005KT P6SM SKC

أرصاد الطقس والتوقعات من أكثر من 4000 مطار (تقارير الطقس للمطار METAR والتنبؤ بالطقس بالمطارTAF).

المحطات المتاحة هي النقط الصفراء والحمراء على الخريطة.

حرك المؤشر فوق النقطة لمعرفة اسم المحطة.

ثم انقر لمعرفة أرصاد وتوقعات الطقس.

لتغيير الخارطة: اضغط على الأزرار الخضراء مع رمز الصليب الأسود للتكبير. على الزر الأخضر مع شرطة للتصغير، أو على الأسهم الخضراء للخرائط المجاورة.


METAR-TAF: